sensor_id;sensor_type;location;lat;lon;timestamp;pressure;altitude;pressure_sealevel;temperature;humidity
50103;BME280;35993;52.604;10.078;2023-04-24T00:01:39;99670.81;;;12.87;93.64
50103;BME280;35993;52.604;10.078;2023-04-24T00:04:05;99669.38;;;12.79;93.72
50103;BME280;35993;52.604;10.078;2023-04-24T00:06:32;99674.81;;;12.79;93.60
50103;BME280;35993;52.604;10.078;2023-04-24T00:09:00;99665.84;;;12.79;93.29
50103;BME280;35993;52.604;10.078;2023-04-24T00:11:26;99673.44;;;12.77;93.48
50103;BME280;35993;52.604;10.078;2023-04-24T00:13:52;99672.31;;;12.73;93.28
50103;BME280;35993;52.604;10.078;2023-04-24T00:16:18;99669.25;;;12.69;94.24
50103;BME280;35993;52.604;10.078;2023-04-24T00:18:43;99673.06;;;12.68;93.72
50103;BME280;35993;52.604;10.078;2023-04-24T00:21:10;99668.47;;;12.69;93.50
50103;BME280;35993;52.604;10.078;2023-04-24T00:23:36;99674.09;;;12.62;93.40
50103;BME280;35993;52.604;10.078;2023-04-24T00:26:02;99671.34;;;12.62;93.36
50103;BME280;35993;52.604;10.078;2023-04-24T00:28:27;99668.59;;;12.57;93.93
50103;BME280;35993;52.604;10.078;2023-04-24T00:30:53;99665.00;;;12.51;94.56
50103;BME280;35993;52.604;10.078;2023-04-24T00:33:19;99666.06;;;12.50;94.42
50103;BME280;35993;52.604;10.078;2023-04-24T00:35:45;99669.56;;;12.45;94.42
50103;BME280;35993;52.604;10.078;2023-04-24T00:38:11;99659.19;;;12.42;94.99
50103;BME280;35993;52.604;10.078;2023-04-24T00:40:36;99663.44;;;12.33;95.23
50103;BME280;35993;52.604;10.078;2023-04-24T00:43:02;99663.94;;;12.30;95.31
50103;BME280;35993;52.604;10.078;2023-04-24T00:45:28;99662.91;;;12.36;95.59
50103;BME280;35993;52.604;10.078;2023-04-24T00:47:53;99674.59;;;12.32;95.00
50103;BME280;35993;52.604;10.078;2023-04-24T00:50:20;99670.91;;;12.21;95.38
50103;BME280;35993;52.604;10.078;2023-04-24T00:52:46;99676.28;;;12.16;95.99
50103;BME280;35993;52.604;10.078;2023-04-24T00:55:12;99671.34;;;12.12;96.22
50103;BME280;35993;52.604;10.078;2023-04-24T00:57:38;99675.16;;;12.11;96.00
50103;BME280;35993;52.604;10.078;2023-04-24T01:00:05;99667.56;;;12.13;95.60
50103;BME280;35993;52.604;10.078;2023-04-24T01:02:36;99668.31;;;12.09;96.00
50103;BME280;35993;52.604;10.078;2023-04-24T01:05:02;99659.56;;;12.07;95.85
50103;BME280;35993;52.604;10.078;2023-04-24T01:07:29;99667.41;;;12.03;95.92
50103;BME280;35993;52.604;10.078;2023-04-24T01:09:54;99655.13;;;12.01;96.38
50103;BME280;35993;52.604;10.078;2023-04-24T01:12:20;99661.09;;;11.98;96.34
50103;BME280;35993;52.604;10.078;2023-04-24T01:14:46;99659.53;;;11.85;98.08
50103;BME280;35993;52.604;10.078;2023-04-24T01:17:11;99652.38;;;11.78;98.51
50103;BME280;35993;52.604;10.078;2023-04-24T01:19:38;99654.78;;;11.75;98.96
50103;BME280;35993;52.604;10.078;2023-04-24T01:22:09;99660.22;;;11.75;98.81
50103;BME280;35993;52.604;10.078;2023-04-24T01:24:36;99648.25;;;11.76;98.50
50103;BME280;35993;52.604;10.078;2023-04-24T01:27:01;99648.84;;;11.78;99.03
50103;BME280;35993;52.604;10.078;2023-04-24T01:29:27;99650.47;;;11.79;98.25
50103;BME280;35993;52.604;10.078;2023-04-24T01:31:53;99654.28;;;11.78;98.34
50103;BME280;35993;52.604;10.078;2023-04-24T01:34:19;99647.75;;;11.79;98.38
50103;BME280;35993;52.604;10.078;2023-04-24T01:36:45;99655.28;;;11.72;98.22
50103;BME280;35993;52.604;10.078;2023-04-24T01:39:11;99659.81;;;11.66;99.02
50103;BME280;35993;52.604;10.078;2023-04-24T01:41:37;99671.84;;;11.53;100.00
50103;BME280;35993;52.604;10.078;2023-04-24T01:44:03;99668.19;;;11.42;100.00
50103;BME280;35993;52.604;10.078;2023-04-24T01:46:29;99664.13;;;11.45;100.00
50103;BME280;35993;52.604;10.078;2023-04-24T01:48:58;99662.66;;;11.37;100.00
50103;BME280;35993;52.604;10.078;2023-04-24T01:51:24;99674.00;;;11.34;100.00
50103;BME280;35993;52.604;10.078;2023-04-24T01:53:50;99667.44;;;11.30;100.00
50103;BME280;35993;52.604;10.078;2023-04-24T01:56:16;99655.25;;;11.32;99.85
50103;BME280;35993;52.604;10.078;2023-04-24T01:58:42;99648.81;;;11.39;98.50
50103;BME280;35993;52.604;10.078;2023-04-24T02:01:08;99648.91;;;11.44;97.13
50103;BME280;35993;52.604;10.078;2023-04-24T02:03:34;99649.81;;;11.50;95.45
50103;BME280;35993;52.604;10.078;2023-04-24T02:05:59;99644.38;;;11.50;94.23
50103;BME280;35993;52.604;10.078;2023-04-24T02:08:25;99644.59;;;11.48;93.31
50103;BME280;35993;52.604;10.078;2023-04-24T02:10:51;99643.88;;;11.53;93.20
50103;BME280;35993;52.604;10.078;2023-04-24T02:13:16;99649.31;;;11.53;92.36
50103;BME280;35993;52.604;10.078;2023-04-24T02:15:42;99639.69;;;11.45;92.38
50103;BME280;35993;52.604;10.078;2023-04-24T02:18:07;99643.66;;;11.37;92.27
50103;BME280;35993;52.604;10.078;2023-04-24T02:20:33;99645.53;;;11.37;92.08
50103;BME280;35993;52.604;10.078;2023-04-24T02:23:02;99644.78;;;11.41;91.83
50103;BME280;35993;52.604;10.078;2023-04-24T02:25:27;99647.84;;;11.45;91.47
50103;BME280;35993;52.604;10.078;2023-04-24T02:27:54;99653.53;;;11.43;91.32
50103;BME280;35993;52.604;10.078;2023-04-24T02:30:20;99654.22;;;11.56;90.75
50103;BME280;35993;52.604;10.078;2023-04-24T02:32:45;99647.41;;;11.53;90.69
50103;BME280;35993;52.604;10.078;2023-04-24T02:35:11;99645.84;;;11.57;90.32
50103;BME280;35993;52.604;10.078;2023-04-24T02:37:36;99646.19;;;11.44;90.73
50103;BME280;35993;52.604;10.078;2023-04-24T02:40:02;99651.91;;;11.25;91.31
50103;BME280;35993;52.604;10.078;2023-04-24T02:42:28;99649.56;;;11.17;91.16
50103;BME280;35993;52.604;10.078;2023-04-24T02:44:53;99649.25;;;11.13;91.32
50103;BME280;35993;52.604;10.078;2023-04-24T02:47:19;99654.75;;;11.02;90.94
50103;BME280;35993;52.604;10.078;2023-04-24T02:49:45;99643.09;;;11.01;91.62
50103;BME280;35993;52.604;10.078;2023-04-24T02:52:10;99648.19;;;10.97;91.41
50103;BME280;35993;52.604;10.078;2023-04-24T02:54:36;99644.28;;;10.76;92.24
50103;BME280;35993;52.604;10.078;2023-04-24T02:57:01;99646.00;;;10.82;92.13
50103;BME280;35993;52.604;10.078;2023-04-24T02:59:27;99642.06;;;10.73;92.00
50103;BME280;35993;52.604;10.078;2023-04-24T03:01:54;99643.28;;;10.65;92.43
50103;BME280;35993;52.604;10.078;2023-04-24T03:04:20;99633.91;;;10.73;92.16
50103;BME280;35993;52.604;10.078;2023-04-24T03:06:45;99635.47;;;10.69;92.03
50103;BME280;35993;52.604;10.078;2023-04-24T03:09:12;99626.56;;;10.57;92.62
50103;BME280;35993;52.604;10.078;2023-04-24T03:11:37;99630.97;;;10.46;93.38
50103;BME280;35993;52.604;10.078;2023-04-24T03:14:03;99636.47;;;10.51;93.56
50103;BME280;35993;52.604;10.078;2023-04-24T03:16:28;99628.06;;;10.64;93.20
50103;BME280;35993;52.604;10.078;2023-04-24T03:18:54;99625.75;;;10.56;93.11
50103;BME280;35993;52.604;10.078;2023-04-24T03:21:20;99631.50;;;10.60;93.01
50103;BME280;35993;52.604;10.078;2023-04-24T03:23:46;99635.81;;;10.44;93.70
50103;BME280;35993;52.604;10.078;2023-04-24T03:26:12;99624.38;;;10.42;93.96
50103;BME280;35993;52.604;10.078;2023-04-24T03:28:44;99627.44;;;10.45;94.27
50103;BME280;35993;52.604;10.078;2023-04-24T03:31:10;99624.75;;;10.33;94.38
50103;BME280;35993;52.604;10.078;2023-04-24T03:33:36;99627.22;;;10.35;94.63
50103;BME280;35993;52.604;10.078;2023-04-24T03:36:02;99627.28;;;10.23;95.21
50103;BME280;35993;52.604;10.078;2023-04-24T03:38:35;99632.81;;;10.16;95.84
50103;BME280;35993;52.604;10.078;2023-04-24T03:41:16;99634.00;;;10.21;96.53
50103;BME280;35993;52.604;10.078;2023-04-24T03:43:48;99631.59;;;10.24;95.83
50103;BME280;35993;52.604;10.078;2023-04-24T03:46:15;99627.13;;;10.30;95.47
50103;BME280;35993;52.604;10.078;2023-04-24T03:48:46;99636.28;;;10.41;95.15
50103;BME280;35993;52.604;10.078;2023-04-24T03:51:14;99638.63;;;10.49;93.92
50103;BME280;35993;52.604;10.078;2023-04-24T03:53:43;99642.47;;;10.36;93.40
50103;BME280;35993;52.604;10.078;2023-04-24T03:56:11;99627.84;;;10.37;93.07
50103;BME280;35993;52.604;10.078;2023-04-24T03:58:37;99625.44;;;10.41;92.81
50103;BME280;35993;52.604;10.078;2023-04-24T04:01:02;99634.75;;;10.33;92.48
50103;BME280;35993;52.604;10.078;2023-04-24T04:03:37;99635.97;;;10.37;92.03
50103;BME280;35993;52.604;10.078;2023-04-24T04:06:04;99624.91;;;10.27;92.62
50103;BME280;35993;52.604;10.078;2023-04-24T04:08:29;99631.50;;;10.19;92.94
50103;BME280;35993;52.604;10.078;2023-04-24T04:10:55;99624.22;;;10.20;93.17
50103;BME280;35993;52.604;10.078;2023-04-24T04:13:22;99629.91;;;10.06;94.11
50103;BME280;35993;52.604;10.078;2023-04-24T04:15:48;99632.03;;;10.04;93.77
50103;BME280;35993;52.604;10.078;2023-04-24T04:18:14;99631.09;;;9.98;94.19
50103;BME280;35993;52.604;10.078;2023-04-24T04:20:40;99630.78;;;9.95;94.57
50103;BME280;35993;52.604;10.078;2023-04-24T04:23:05;99634.06;;;9.97;94.32
50103;BME280;35993;52.604;10.078;2023-04-24T04:26:00;99629.78;;;10.01;93.99
50103;BME280;35993;52.604;10.078;2023-04-24T04:28:37;99619.66;;;10.08;93.58
50103;BME280;35993;52.604;10.078;2023-04-24T04:31:04;99625.03;;;10.20;93.25
50103;BME280;35993;52.604;10.078;2023-04-24T04:33:30;99623.16;;;10.21;93.00
50103;BME280;35993;52.604;10.078;2023-04-24T04:35:56;99620.34;;;10.15;92.96
50103;BME280;35993;52.604;10.078;2023-04-24T04:38:24;99619.06;;;10.06;93.45
50103;BME280;35993;52.604;10.078;2023-04-24T04:41:10;99609.88;;;10.07;93.60
50103;BME280;35993;52.604;10.078;2023-04-24T04:43:36;99614.31;;;10.13;93.54
50103;BME280;35993;52.604;10.078;2023-04-24T04:46:03;99615.81;;;10.21;92.92
50103;BME280;35993;52.604;10.078;2023-04-24T04:48:46;99608.19;;;10.18;93.03
50103;BME280;35993;52.604;10.078;2023-04-24T04:51:12;99614.66;;;10.17;93.12
50103;BME280;35993;52.604;10.078;2023-04-24T04:53:38;99615.22;;;10.19;93.38
50103;BME280;35993;52.604;10.078;2023-04-24T04:56:03;99617.09;;;10.30;93.53
50103;BME280;35993;52.604;10.078;2023-04-24T04:58:36;99631.94;;;10.28;94.11
50103;BME280;35993;52.604;10.078;2023-04-24T05:01:04;99639.66;;;10.19;94.59
50103;BME280;35993;52.604;10.078;2023-04-24T05:03:35;99649.19;;;10.22;95.02
50103;BME280;35993;52.604;10.078;2023-04-24T05:06:07;99646.97;;;10.19;95.44
50103;BME280;35993;52.604;10.078;2023-04-24T05:08:36;99644.25;;;10.19;96.14
50103;BME280;35993;52.604;10.078;2023-04-24T05:11:04;99642.03;;;10.15;96.49
50103;BME280;35993;52.604;10.078;2023-04-24T05:13:31;99640.13;;;10.16;96.67
50103;BME280;35993;52.604;10.078;2023-04-24T05:15:57;99644.50;;;10.17;96.84
50103;BME280;35993;52.604;10.078;2023-04-24T05:18:22;99649.34;;;10.15;97.27
50103;BME280;35993;52.604;10.078;2023-04-24T05:20:48;99649.09;;;10.16;97.81
50103;BME280;35993;52.604;10.078;2023-04-24T05:23:14;99649.88;;;10.29;98.07
50103;BME280;35993;52.604;10.078;2023-04-24T05:25:42;99662.38;;;10.42;98.20
50103;BME280;35993;52.604;10.078;2023-04-24T05:28:10;99660.00;;;10.45;98.58
50103;BME280;35993;52.604;10.078;2023-04-24T05:30:37;99650.94;;;10.40;98.74
50103;BME280;35993;52.604;10.078;2023-04-24T05:33:02;99653.97;;;10.43;98.90
50103;BME280;35993;52.604;10.078;2023-04-24T05:35:29;99650.31;;;10.49;99.03
50103;BME280;35993;52.604;10.078;2023-04-24T05:37:55;99654.56;;;10.45;99.57
50103;BME280;35993;52.604;10.078;2023-04-24T05:40:21;99657.13;;;10.52;99.67
50103;BME280;35993;52.604;10.078;2023-04-24T05:42:47;99667.75;;;10.54;99.41
50103;BME280;35993;52.604;10.078;2023-04-24T05:45:12;99659.56;;;10.65;99.38
50103;BME280;35993;52.604;10.078;2023-04-24T05:47:42;99659.75;;;10.76;98.12
50103;BME280;35993;52.604;10.078;2023-04-24T05:50:10;99660.41;;;10.83;97.41
50103;BME280;35993;52.604;10.078;2023-04-24T05:52:36;99667.47;;;10.84;97.28
50103;BME280;35993;52.604;10.078;2023-04-24T05:55:05;99661.66;;;10.92;97.41
50103;BME280;35993;52.604;10.078;2023-04-24T05:57:32;99665.63;;;11.02;96.79
50103;BME280;35993;52.604;10.078;2023-04-24T06:00:02;99660.78;;;11.04;96.57
50103;BME280;35993;52.604;10.078;2023-04-24T06:02:39;99659.53;;;11.11;95.79
50103;BME280;35993;52.604;10.078;2023-04-24T06:05:06;99664.56;;;11.20;95.50
50103;BME280;35993;52.604;10.078;2023-04-24T06:07:33;99659.94;;;11.37;95.53
50103;BME280;35993;52.604;10.078;2023-04-24T06:10:02;99653.53;;;11.43;94.27
50103;BME280;35993;52.604;10.078;2023-04-24T06:12:31;99664.94;;;11.45;93.81
50103;BME280;35993;52.604;10.078;2023-04-24T06:15:02;99654.56;;;11.59;93.39
50103;BME280;35993;52.604;10.078;2023-04-24T06:17:43;99663.19;;;11.73;93.10
50103;BME280;35993;52.604;10.078;2023-04-24T06:20:09;99660.47;;;11.73;92.03
50103;BME280;35993;52.604;10.078;2023-04-24T06:22:36;99661.69;;;11.83;92.23
50103;BME280;35993;52.604;10.078;2023-04-24T06:25:02;99650.53;;;12.01;91.93
50103;BME280;35993;52.604;10.078;2023-04-24T06:27:28;99646.75;;;12.02;91.35
50103;BME280;35993;52.604;10.078;2023-04-24T06:29:53;99657.03;;;12.00;91.18
50103;BME280;35993;52.604;10.078;2023-04-24T06:32:24;99654.59;;;11.99;91.42
50103;BME280;35993;52.604;10.078;2023-04-24T06:34:51;99659.94;;;11.93;91.48
50103;BME280;35993;52.604;10.078;2023-04-24T06:37:18;99665.63;;;11.92;91.99
50103;BME280;35993;52.604;10.078;2023-04-24T06:39:44;99659.94;;;11.93;92.19
50103;BME280;35993;52.604;10.078;2023-04-24T06:42:09;99658.84;;;11.94;91.85
50103;BME280;35993;52.604;10.078;2023-04-24T06:44:35;99670.06;;;11.98;92.29
50103;BME280;35993;52.604;10.078;2023-04-24T06:47:07;99672.13;;;11.91;92.22
50103;BME280;35993;52.604;10.078;2023-04-24T06:49:34;99661.69;;;11.83;91.78
50103;BME280;35993;52.604;10.078;2023-04-24T06:52:00;99662.59;;;11.88;92.30
50103;BME280;35993;52.604;10.078;2023-04-24T06:54:25;99672.56;;;11.83;92.06
50103;BME280;35993;52.604;10.078;2023-04-24T06:56:51;99672.31;;;11.84;92.02
50103;BME280;35993;52.604;10.078;2023-04-24T06:59:17;99680.63;;;11.77;92.63
50103;BME280;35993;52.604;10.078;2023-04-24T07:01:43;99677.66;;;11.79;91.62
50103;BME280;35993;52.604;10.078;2023-04-24T07:04:08;99678.09;;;11.71;89.20
50103;BME280;35993;52.604;10.078;2023-04-24T07:06:35;99667.88;;;11.78;86.87
50103;BME280;35993;52.604;10.078;2023-04-24T07:09:01;99669.69;;;11.72;85.75
50103;BME280;35993;52.604;10.078;2023-04-24T07:11:26;99657.22;;;11.76;83.32
50103;BME280;35993;52.604;10.078;2023-04-24T07:13:55;99671.88;;;11.92;83.44
50103;BME280;35993;52.604;10.078;2023-04-24T07:16:21;99669.66;;;12.06;83.71
50103;BME280;35993;52.604;10.078;2023-04-24T07:18:46;99665.34;;;12.10;83.34
50103;BME280;35993;52.604;10.078;2023-04-24T07:21:12;99657.09;;;12.27;82.98
50103;BME280;35993;52.604;10.078;2023-04-24T07:23:37;99664.44;;;12.27;82.34
50103;BME280;35993;52.604;10.078;2023-04-24T07:26:03;99663.31;;;12.23;81.05
50103;BME280;35993;52.604;10.078;2023-04-24T07:28:28;99677.41;;;12.20;81.31
50103;BME280;35993;52.604;10.078;2023-04-24T07:30:57;99677.00;;;12.28;80.98
50103;BME280;35993;52.604;10.078;2023-04-24T07:33:25;99679.38;;;12.24;80.37
50103;BME280;35993;52.604;10.078;2023-04-24T07:35:51;99686.41;;;12.20;79.81
50103;BME280;35993;52.604;10.078;2023-04-24T07:38:17;99693.28;;;12.06;81.26
50103;BME280;35993;52.604;10.078;2023-04-24T07:40:46;99696.19;;;11.99;80.99
50103;BME280;35993;52.604;10.078;2023-04-24T07:43:11;99692.09;;;11.96;81.18
50103;BME280;35993;52.604;10.078;2023-04-24T07:45:37;99702.47;;;12.00;80.87
50103;BME280;35993;52.604;10.078;2023-04-24T07:48:03;99700.81;;;11.99;81.15
50103;BME280;35993;52.604;10.078;2023-04-24T07:50:28;99709.78;;;11.99;82.55
50103;BME280;35993;52.604;10.078;2023-04-24T07:52:54;99707.06;;;11.99;82.19
50103;BME280;35993;52.604;10.078;2023-04-24T07:55:20;99710.84;;;12.15;82.31
50103;BME280;35993;52.604;10.078;2023-04-24T07:57:45;99727.50;;;12.19;82.25
50103;BME280;35993;52.604;10.078;2023-04-24T08:00:11;99707.91;;;12.00;80.57
50103;BME280;35993;52.604;10.078;2023-04-24T08:02:37;99714.25;;;12.27;80.74
50103;BME280;35993;52.604;10.078;2023-04-24T08:05:03;99707.25;;;12.32;79.05
50103;BME280;35993;52.604;10.078;2023-04-24T08:07:29;99712.03;;;12.02;77.40
50103;BME280;35993;52.604;10.078;2023-04-24T08:09:54;99719.63;;;12.22;77.23
50103;BME280;35993;52.604;10.078;2023-04-24T08:12:20;99705.13;;;12.39;75.19
50103;BME280;35993;52.604;10.078;2023-04-24T08:14:45;99705.28;;;12.76;74.27
50103;BME280;35993;52.604;10.078;2023-04-24T08:17:11;99703.03;;;12.95;74.21
50103;BME280;35993;52.604;10.078;2023-04-24T08:19:36;99703.81;;;12.91;74.27
50103;BME280;35993;52.604;10.078;2023-04-24T08:22:02;99710.38;;;12.95;73.30
50103;BME280;35993;52.604;10.078;2023-04-24T08:24:29;99717.72;;;12.94;72.07
50103;BME280;35993;52.604;10.078;2023-04-24T08:26:55;99713.56;;;12.87;70.17
50103;BME280;35993;52.604;10.078;2023-04-24T08:29:23;99716.19;;;13.04;69.49
50103;BME280;35993;52.604;10.078;2023-04-24T08:31:48;99720.03;;;13.08;68.77
50103;BME280;35993;52.604;10.078;2023-04-24T08:34:14;99737.84;;;13.21;69.54
50103;BME280;35993;52.604;10.078;2023-04-24T08:36:39;99714.97;;;12.89;69.40
50103;BME280;35993;52.604;10.078;2023-04-24T08:39:06;99735.13;;;12.66;70.01
50103;BME280;35993;52.604;10.078;2023-04-24T08:41:33;99745.41;;;12.59;70.32
50103;BME280;35993;52.604;10.078;2023-04-24T08:44:01;99748.50;;;12.45;71.02
50103;BME280;35993;52.604;10.078;2023-04-24T08:46:27;99760.97;;;12.41;71.70
50103;BME280;35993;52.604;10.078;2023-04-24T08:48:53;99750.72;;;12.26;71.49
50103;BME280;35993;52.604;10.078;2023-04-24T08:51:19;99751.72;;;12.42;71.42
50103;BME280;35993;52.604;10.078;2023-04-24T08:53:46;99755.38;;;12.75;71.13
50103;BME280;35993;52.604;10.078;2023-04-24T08:56:11;99744.75;;;12.74;70.36
50103;BME280;35993;52.604;10.078;2023-04-24T08:58:38;99728.72;;;13.05;68.76
50103;BME280;35993;52.604;10.078;2023-04-24T09:01:05;99737.75;;;13.10;67.57
50103;BME280;35993;52.604;10.078;2023-04-24T09:03:31;99734.44;;;13.03;68.48
50103;BME280;35993;52.604;10.078;2023-04-24T09:05:57;99726.31;;;13.08;68.20
50103;BME280;35993;52.604;10.078;2023-04-24T09:08:25;99739.34;;;13.34;69.06
50103;BME280;35993;52.604;10.078;2023-04-24T09:10:51;99731.19;;;13.06;68.45
50103;BME280;35993;52.604;10.078;2023-04-24T09:13:18;99733.97;;;13.11;69.47
50103;BME280;35993;52.604;10.078;2023-04-24T09:15:44;99742.47;;;13.48;69.61
50103;BME280;35993;52.604;10.078;2023-04-24T09:18:10;99745.88;;;13.33;68.33
50103;BME280;35993;52.604;10.078;2023-04-24T09:21:16;99733.66;;;13.08;68.80
50103;BME280;35993;52.604;10.078;2023-04-24T09:23:42;99744.91;;;12.89;69.61
50103;BME280;35993;52.604;10.078;2023-04-24T09:26:09;99752.72;;;12.81;69.89
50103;BME280;35993;52.604;10.078;2023-04-24T09:28:37;99765.38;;;12.70;70.80
50103;BME280;35993;52.604;10.078;2023-04-24T09:31:08;99747.78;;;12.55;70.41
50103;BME280;35993;52.604;10.078;2023-04-24T09:33:35;99745.44;;;12.64;70.01
50103;BME280;35993;52.604;10.078;2023-04-24T09:36:01;99746.19;;;13.09;69.87
50103;BME280;35993;52.604;10.078;2023-04-24T09:38:36;99748.78;;;13.48;68.40
50103;BME280;35993;52.604;10.078;2023-04-24T09:41:06;99730.84;;;13.57;65.25
50103;BME280;35993;52.604;10.078;2023-04-24T09:43:32;99718.84;;;13.58;63.42
50103;BME280;35993;52.604;10.078;2023-04-24T09:46:00;99721.94;;;13.67;63.84
50103;BME280;35993;52.604;10.078;2023-04-24T09:48:33;99711.44;;;13.54;63.88
50103;BME280;35993;52.604;10.078;2023-04-24T09:51:00;99720.34;;;13.76;63.72
50103;BME280;35993;52.604;10.078;2023-04-24T09:53:27;99724.59;;;13.30;62.12
50103;BME280;35993;52.604;10.078;2023-04-24T09:55:53;99729.84;;;13.09;62.59
50103;BME280;35993;52.604;10.078;2023-04-24T09:58:25;99740.84;;;13.19;63.36
50103;BME280;35993;52.604;10.078;2023-04-24T10:00:55;99734.13;;;13.00;63.08
50103;BME280;35993;52.604;10.078;2023-04-24T10:03:24;99739.25;;;12.96;63.56
50103;BME280;35993;52.604;10.078;2023-04-24T10:05:51;99742.69;;;12.86;63.97
50103;BME280;35993;52.604;10.078;2023-04-24T10:08:17;99742.47;;;12.88;64.39
50103;BME280;35993;52.604;10.078;2023-04-24T10:10:45;99738.25;;;13.35;63.38
50103;BME280;35993;52.604;10.078;2023-04-24T10:13:12;99747.53;;;13.66;63.93
50103;BME280;35993;52.604;10.078;2023-04-24T10:15:39;99728.13;;;13.57;62.23
50103;BME280;35993;52.604;10.078;2023-04-24T10:18:06;99725.28;;;13.42;62.37
50103;BME280;35993;52.604;10.078;2023-04-24T10:20:35;99727.53;;;13.55;62.48
50103;BME280;35993;52.604;10.078;2023-04-24T10:23:01;99736.72;;;13.76;62.01
50103;BME280;35993;52.604;10.078;2023-04-24T10:25:29;99736.13;;;13.74;60.78
50103;BME280;35993;52.604;10.078;2023-04-24T10:27:56;99725.84;;;13.82;61.72
50103;BME280;35993;52.604;10.078;2023-04-24T10:30:25;99722.09;;;14.56;60.97
50103;BME280;35993;52.604;10.078;2023-04-24T10:32:51;99706.13;;;14.17;59.62
50103;BME280;35993;52.604;10.078;2023-04-24T10:35:17;99717.91;;;13.80;61.34
50103;BME280;35993;52.604;10.078;2023-04-24T10:37:50;99723.78;;;13.99;61.88
50103;BME280;35993;52.604;10.078;2023-04-24T10:40:18;99722.06;;;13.88;61.46
50103;BME280;35993;52.604;10.078;2023-04-24T10:42:48;99724.38;;;13.69;60.79
50103;BME280;35993;52.604;10.078;2023-04-24T10:45:21;99732.75;;;13.30;62.42
50103;BME280;35993;52.604;10.078;2023-04-24T10:47:58;99728.56;;;13.17;62.46
50103;BME280;35993;52.604;10.078;2023-04-24T10:50:29;99736.19;;;13.42;63.45
50103;BME280;35993;52.604;10.078;2023-04-24T10:53:06;99737.84;;;13.21;62.67
50103;BME280;35993;52.604;10.078;2023-04-24T10:55:44;99745.78;;;13.50;63.43
50103;BME280;35993;52.604;10.078;2023-04-24T10:58:10;99741.78;;;13.63;63.63
50103;BME280;35993;52.604;10.078;2023-04-24T11:00:38;99736.44;;;13.40;62.91
50103;BME280;35993;52.604;10.078;2023-04-24T11:03:22;99749.66;;;13.26;63.75
50103;BME280;35993;52.604;10.078;2023-04-24T11:05:54;99740.34;;;13.22;63.21
50103;BME280;35993;52.604;10.078;2023-04-24T11:11:02;99747.09;;;13.15;63.24
50103;BME280;35993;52.604;10.078;2023-04-24T11:16:32;99761.09;;;12.74;64.92
50103;BME280;35993;52.604;10.078;2023-04-24T11:21:55;99764.25;;;12.66;64.48
50103;BME280;35993;52.604;10.078;2023-04-24T11:27:05;99762.75;;;12.75;65.81
50103;BME280;35993;52.604;10.078;2023-04-24T11:32:35;99756.53;;;12.79;65.51
50103;BME280;35993;52.604;10.078;2023-04-24T11:37:37;99768.44;;;12.51;66.07
50103;BME280;35993;52.604;10.078;2023-04-24T11:40:04;99768.69;;;12.50;66.82
50103;BME280;35993;52.604;10.078;2023-04-24T11:42:35;99778.00;;;12.54;68.47
50103;BME280;35993;52.604;10.078;2023-04-24T11:45:02;99770.19;;;12.40;67.57
50103;BME280;35993;52.604;10.078;2023-04-24T11:47:32;99778.63;;;12.39;67.72
50103;BME280;35993;52.604;10.078;2023-04-24T11:50:00;99777.53;;;12.62;67.83
50103;BME280;35993;52.604;10.078;2023-04-24T11:52:26;99768.03;;;12.65;67.25
50103;BME280;35993;52.604;10.078;2023-04-24T11:54:52;99773.69;;;12.58;67.36
50103;BME280;35993;52.604;10.078;2023-04-24T11:57:21;99780.00;;;12.41;67.33
50103;BME280;35993;52.604;10.078;2023-04-24T11:59:48;99775.91;;;12.39;67.61
50103;BME280;35993;52.604;10.078;2023-04-24T12:02:23;99783.56;;;12.42;68.14
50103;BME280;35993;52.604;10.078;2023-04-24T12:04:50;99794.47;;;12.42;68.81
50103;BME280;35993;52.604;10.078;2023-04-24T12:07:16;99793.22;;;12.33;68.66
50103;BME280;35993;52.604;10.078;2023-04-24T12:09:46;99801.50;;;12.21;69.60
50103;BME280;35993;52.604;10.078;2023-04-24T12:12:13;99805.88;;;12.22;70.57
50103;BME280;35993;52.604;10.078;2023-04-24T12:14:48;99801.03;;;12.24;70.86
50103;BME280;35993;52.604;10.078;2023-04-24T12:17:16;99800.78;;;12.25;70.51
50103;BME280;35993;52.604;10.078;2023-04-24T12:19:48;99801.97;;;12.35;69.99
50103;BME280;35993;52.604;10.078;2023-04-24T12:22:14;99799.31;;;12.40;70.04
50103;BME280;35993;52.604;10.078;2023-04-24T12:24:59;99790.97;;;12.46;68.64
50103;BME280;35993;52.604;10.078;2023-04-24T12:27:28;99792.81;;;12.41;67.68
50103;BME280;35993;52.604;10.078;2023-04-24T12:29:58;99790.22;;;12.29;67.87
50103;BME280;35993;52.604;10.078;2023-04-24T12:32:25;99788.16;;;12.19;67.81
50103;BME280;35993;52.604;10.078;2023-04-24T12:34:54;99792.13;;;12.11;67.25
50103;BME280;35993;52.604;10.078;2023-04-24T12:37:21;99783.31;;;12.04;67.37
50103;BME280;35993;52.604;10.078;2023-04-24T12:40:07;99784.63;;;12.02;66.90
50103;BME280;35993;52.604;10.078;2023-04-24T12:42:34;99792.78;;;12.02;67.79
50103;BME280;35993;52.604;10.078;2023-04-24T12:45:05;99793.31;;;11.99;68.28
50103;BME280;35993;52.604;10.078;2023-04-24T12:47:32;99795.03;;;12.05;68.51
50103;BME280;35993;52.604;10.078;2023-04-24T12:49:58;99789.34;;;12.06;67.53
50103;BME280;35993;52.604;10.078;2023-04-24T12:52:26;99798.91;;;12.09;67.77
50103;BME280;35993;52.604;10.078;2023-04-24T12:54:58;99800.56;;;12.10;68.76
50103;BME280;35993;52.604;10.078;2023-04-24T12:57:25;99800.16;;;12.01;68.93
50103;BME280;35993;52.604;10.078;2023-04-24T12:59:53;99803.69;;;12.02;69.09
50103;BME280;35993;52.604;10.078;2023-04-24T13:02:19;99803.81;;;11.95;69.61
50103;BME280;35993;52.604;10.078;2023-04-24T13:04:46;99808.84;;;12.03;70.15
50103;BME280;35993;52.604;10.078;2023-04-24T13:07:13;99813.06;;;12.11;70.13
50103;BME280;35993;52.604;10.078;2023-04-24T13:09:40;99810.09;;;11.95;69.98